• Join FlightAware (Why Join?)
  • Login
  • US Flag 
Trick or treat! (Boo!!) 
12:30PM EDT


 

Airport Tracker/Info


-or-


 

Live Flight TrackerFlight Track Log ✈ FLG4222 ✈ 02-Dec-2013 ✈ KDTW - KBGM

Flight Track Log - Related Links

Times and Time Zones

All times are in EST time to prevent confusion due to time zone crossing. See the FLG4222 flight status page for this flight to view local times or setup timezone preferences in your user account.

Time Position Orientation Groundspeed Altitude Reporting Facility
EST Latitude Longitude Course Direction KTS MPH feet Rate Location/Type
10:07AM 42.2339 -83.3317 36° Northeast 146 168 1,700  Level Cleveland Center
10:08AM 42.2747 -83.2922 36° Northeast 203 234 3,900 2,040 Climbing Cleveland Center
10:08AM 42.2806 -83.2869 34° Northeast 199 229 4,100 1,920 Climbing Cleveland Center
10:09AM 42.2964 -83.1961 77° East 257 296 6,200 2,280 Climbing Cleveland Center
10:10AM 42.2767 -83.0903 104° East 286 329 8,900 2,220 Climbing Cleveland Center
10:11AM 42.2772 -82.9708 90° East 323 372 10,800 1,740 Climbing Cleveland Center
10:12AM 42.3014 -82.8414 76° East 350 403 12,500 1,680 Climbing Cleveland Center
10:13AM 42.3250 -82.6986 77° East 379 436 14,300 1,980 Climbing Cleveland Center
10:14AM 42.3561 -82.5200 77° East 402 463 16,700 1,980 Climbing Cleveland Center
10:15AM 42.3647 -82.3683 86° East 405 466 18,400 1,560 Climbing Cleveland Center
10:16AM 42.3586 -82.2122 93° East 415 478 20,000 1,440 Climbing Cleveland Center
10:17AM 42.3522 -82.0431 93° East 424 488 21,400 1,200 Climbing Cleveland Center
10:18AM 42.3442 -81.8783 94° East 432 497 22,500 960 Climbing Cleveland Center
10:19AM 42.3367 -81.7103 93° East 440 506 23,500 720 Climbing Cleveland Center
10:20AM 42.3283 -81.5392 94° East 449 517 24,000 540 Climbing Cleveland Center
10:21AM 42.3200 -81.3625 94° East 461 531 24,700 840 Climbing Cleveland Center
10:23AM 42.3111 -81.1872 94° East 463 533 25,800 960 Climbing Cleveland Center
10:24AM 42.3022 -81.0142 94° East 460 529 26,800 540 Climbing Cleveland Center
10:25AM 42.2922 -80.8128 94° East 457 526 27,000 60 Climbing Cleveland Center
10:26AM 42.2822 -80.6317 94° East 472 543 27,000  Level Cleveland Center
10:27AM 42.2719 -80.4489 94° East 481 554 27,000  Level Cleveland Center
10:28AM 42.2617 -80.2631 94° East 490 564 27,000  Level Cleveland Center
10:29AM 42.2506 -80.0808 95° East 484 557 27,000  Level Cleveland Center
10:30AM 42.2389 -79.8956 95° East 479 551 27,000  Level Cleveland Center
10:31AM 42.2272 -79.7178 95° East 478 550 27,000  Level Cleveland Center
10:32AM 42.2156 -79.5397 95° East 479 551 27,000  Level Cleveland Center
10:33AM 42.2017 -79.3250 95° East 480 552 27,000  Level Cleveland Center
10:34AM 42.1897 -79.1469 95° East 479 551 27,000  Level Cleveland Center
10:35AM 42.1914 -78.9661 89° East 486 559 27,000  Level Cleveland Center
10:36AM 42.1944 -78.7683 89° East 481 554 27,000  Level Cleveland Center
10:37AM 42.1975 -78.5892 89° East 480 552 27,000 -300 Level Cleveland Center
10:38AM 42.2006 -78.4119 89° East 477 549 26,500 -1,020 Descending Cleveland Center
10:39AM 42.2028 -78.2300 89° East 485 558 25,000 -1,500 Descending Cleveland Center
10:40AM 42.2042 -78.0522 89° East 482 555 23,500 -1,020 Descending Cleveland Center
10:41AM 42.2067 -77.8406 89° East 475 547 23,000 -300 Descending Cleveland Center
10:42AM 42.2078 -77.6678 89° East 470 541 23,000 -540 Level Cleveland Center
10:43AM 42.2092 -77.4958 89° East 465 535 21,900 -1,260 Descending Cleveland Center
10:44AM 42.2097 -77.3250 90° East 461 531 20,400 -1,500 Descending Cleveland Center
10:45AM 42.2103 -77.1561 90° East 456 525 18,900 -1,620 Descending Cleveland Center
10:46AM 42.2108 -76.9689 90° East 406 467 17,100 -1,680 Descending Cleveland Center
10:47AM 42.2103 -76.8344 90° East 364 419 15,500 -1,920 Descending Cleveland Center
10:48AM 42.2106 -76.7075 90° East 346 398 13,200 -2,340 Descending Cleveland Center
10:49AM 42.2258 -76.5931 80° East 318 366 10,700 -2,760 Descending Cleveland Center
10:50AM 42.2603 -76.4886 66° East 306 352 7,600 -3,180 Descending Cleveland Center
10:51AM 42.2981 -76.3728 66° East 290 334 4,200 -2,100 Descending Cleveland Center
10:53AM 42.3225 -76.2767 71° East 280 322 3,300 -480 Descending Cleveland Center
10:54AM 42.3286 -76.1978 84° East 240 276 3,300  Level Cleveland Center
10:55AM 42.3297 -76.1181 89° East 238 274 3,300  Level Cleveland Center
10:56AM 42.3028 -76.0669 125° Southeast 202 232 3,300 -240 Level New York Center
10:57AM 42.2628 -76.0300 146° Southeast 169 194 2,900 -600 Descending New York Center
10:58AM 42.2308 -75.9994 145° Southeast 161 185 2,100 -840 Descending New York Center